Time;durP1;ratioP1;P1;durP2;ratioP2;P2;SDS_P1;SDS_P2;PMS_P1;PMS_P2;Temp;Humidity;BMP_temperature;BMP_pressure;BME280_temperature;BME280_humidity;BME280_pressure;Samples;Min_cycle;Max_cycle;Signal;HPM_P1;HPM_P2
2021/10/22 00:01:14;;;;;;;5.28;2.13;;;;;;;9.73;50.63;97815.16;5083591;28;20043;-77
2021/10/22 00:03:39;;;;;;;5.57;2.38;;;;;;;9.74;51.17;97816.78;5086143;28;20050;-76
2021/10/22 00:06:05;;;;;;;6.60;1.98;;;;;;;9.77;51.10;97816.19;5089833;28;20058;-77
2021/10/22 00:08:30;;;;;;;4.05;1.90;;;;;;;9.79;50.77;97812.00;5085704;28;20027;-77
2021/10/22 00:10:56;;;;;;;6.43;2.00;;;;;;;9.83;50.73;97818.50;5083803;28;20472;-78
2021/10/22 00:13:21;;;;;;;4.95;2.10;;;;;;;9.84;50.51;97824.78;5080967;28;20056;-77
2021/10/22 00:15:48;;;;;;;6.70;2.00;;;;;;;9.87;50.58;97832.38;5081314;28;20020;-76
2021/10/22 00:18:14;;;;;;;3.67;1.52;;;;;;;9.87;50.65;97835.09;5082550;28;20020;-76
2021/10/22 00:20:40;;;;;;;4.22;1.60;;;;;;;9.89;50.41;97824.66;5084013;28;20376;-76
2021/10/22 00:23:06;;;;;;;3.33;1.65;;;;;;;9.92;50.71;97829.53;5086151;28;20023;-76
2021/10/22 00:25:31;;;;;;;4.07;1.70;;;;;;;9.95;51.11;97823.44;5082804;28;20103;-76
2021/10/22 00:27:57;;;;;;;3.40;1.50;;;;;;;9.98;50.91;97831.03;5063783;28;20415;-77
2021/10/22 00:30:23;;;;;;;4.00;1.38;;;;;;;10.01;50.85;97832.34;5083627;28;20037;-77
2021/10/22 00:32:48;;;;;;;3.40;1.45;;;;;;;10.02;51.03;97833.16;5085030;28;20111;-76
2021/10/22 00:35:14;;;;;;;4.93;1.30;;;;;;;10.06;50.35;97836.91;5081694;28;20028;-76
2021/10/22 00:37:39;;;;;;;2.90;1.45;;;;;;;10.06;50.29;97837.72;5063222;28;20643;-76
2021/10/22 00:40:05;;;;;;;3.53;1.50;;;;;;;10.09;51.24;97833.56;5084528;28;20044;-77
2021/10/22 00:42:33;;;;;;;5.82;1.30;;;;;;;10.13;51.07;97829.88;5087661;28;20039;-77
2021/10/22 00:44:59;;;;;;;3.50;1.60;;;;;;;10.16;50.01;97823.00;5080968;28;20020;-77
2021/10/22 00:47:25;;;;;;;4.72;1.52;;;;;;;10.19;50.27;97819.59;5083718;28;20484;-75
2021/10/22 00:49:50;;;;;;;5.45;1.50;;;;;;;10.19;49.83;97825.09;5083849;28;20019;-76
2021/10/22 00:52:20;;;;;;;1.67;1.02;;;;;;;10.21;49.88;97827.53;5083882;28;20552;-76
2021/10/22 00:54:46;;;;;;;;;;;;;;;10.22;50.46;97824.47;5084405;28;20028;-75
2021/10/22 00:57:13;;;;;;;4.90;1.35;;;;;;;10.25;50.16;97825.78;5087003;28;20353;-75
2021/10/22 00:59:39;;;;;;;2.90;1.40;;;;;;;10.24;50.19;97824.97;5067779;28;20384;-75
2021/10/22 01:02:04;;;;;;;2.65;1.20;;;;;;;10.26;50.09;97827.41;5084895;28;20024;-75
2021/10/22 01:04:30;;;;;;;3.25;1.25;;;;;;;10.26;50.59;97830.16;5090350;28;20016;-76
2021/10/22 01:06:56;;;;;;;4.65;1.60;;;;;;;10.27;51.00;97840.00;5085518;28;20024;-75
2021/10/22 01:09:22;;;;;;;2.58;1.08;;;;;;;10.28;50.26;97838.88;5084605;28;20031;-76
2021/10/22 01:11:49;;;;;;;2.97;1.30;;;;;;;10.30;49.62;97855.84;5078563;28;20020;-75
2021/10/22 01:14:15;;;;;;;4.15;1.33;;;;;;;10.31;50.37;97857.44;5082547;28;20470;-75
2021/10/22 01:16:41;;;;;;;3.53;1.20;;;;;;;10.32;50.39;97848.13;5088165;28;20017;-74
2021/10/22 01:19:13;;;;;;;4.45;1.27;;;;;;;10.31;50.20;97854.72;5089079;28;20024;-74
2021/10/22 01:21:38;;;;;;;3.75;1.10;;;;;;;10.32;49.59;97853.59;5091341;28;20067;-75
2021/10/22 01:24:04;;;;;;;3.65;1.20;;;;;;;10.30;49.52;97866.78;5094741;28;20027;-76
2021/10/22 01:26:30;;;;;;;4.28;1.35;;;;;;;10.30;50.22;97864.06;5093339;28;20407;-75
2021/10/22 01:28:56;;;;;;;3.45;1.45;;;;;;;10.31;50.62;97868.41;5086183;28;20070;-76
2021/10/22 01:31:22;;;;;;;4.28;1.30;;;;;;;10.31;50.14;97873.91;5083064;28;20065;-75
2021/10/22 01:33:49;;;;;;;4.03;1.70;;;;;;;10.31;49.75;97882.13;5072322;28;20029;-76
2021/10/22 01:36:15;;;;;;;3.28;1.60;;;;;;;10.31;49.92;97886.78;5084052;28;20032;-74
2021/10/22 01:38:41;;;;;;;5.78;1.38;;;;;;;10.27;50.72;97876.44;5064960;28;20603;-75
2021/10/22 01:41:06;;;;;;;3.30;1.20;;;;;;;10.26;51.25;97883.03;5089063;28;20027;-75
2021/10/22 01:43:32;;;;;;;4.30;1.58;;;;;;;10.25;50.91;97892.38;5073326;28;20536;-75
2021/10/22 01:45:57;;;;;;;5.90;1.60;;;;;;;10.25;50.61;97892.38;5095265;28;20445;-75
2021/10/22 01:48:23;;;;;;;4.88;1.95;;;;;;;10.26;50.68;97877.53;5090843;28;20038;-75
2021/10/22 01:50:48;;;;;;;5.18;1.67;;;;;;;10.28;51.15;97888.22;5065405;28;20021;-75
2021/10/22 01:53:18;;;;;;;3.75;1.63;;;;;;;10.27;51.24;97883.84;5062462;28;20432;-75
2021/10/22 01:55:44;;;;;;;7.22;1.92;;;;;;;10.30;50.88;97907.91;5087839;28;20143;-75
2021/10/22 01:58:10;;;;;;;4.70;1.90;;;;;;;10.30;51.09;97927.09;5087370;28;20103;-74
2021/10/22 02:00:35;;;;;;;4.15;1.38;;;;;;;10.28;51.28;97930.13;5068634;28;20123;-75
2021/10/22 02:03:01;;;;;;;2.53;1.20;;;;;;;10.25;51.68;97932.69;5084849;28;20016;-74
2021/10/22 02:05:26;;;;;;;4.35;1.73;;;;;;;10.19;52.18;97942.13;5063969;28;20480;-75
2021/10/22 02:07:52;;;;;;;5.30;1.50;;;;;;;10.18;51.72;97929.53;5082097;28;20020;-75
2021/10/22 02:10:18;;;;;;;4.13;1.63;;;;;;;10.16;52.02;97935.34;5084629;28;20024;-75
2021/10/22 02:12:43;;;;;;;3.55;1.92;;;;;;;10.17;51.99;97939.72;5087118;28;20028;-75
2021/10/22 02:15:09;;;;;;;3.45;2.20;;;;;;;10.18;51.92;97935.03;5086724;28;20023;-74
2021/10/22 02:17:35;;;;;;;3.03;1.25;;;;;;;10.16;51.79;97938.09;5085556;28;20027;-74
2021/10/22 02:20:01;;;;;;;2.67;1.40;;;;;;;10.12;52.03;97937.06;5090380;28;20036;-75
2021/10/22 02:22:27;;;;;;;4.00;1.25;;;;;;;10.09;52.32;97946.69;5079513;28;20115;-76
2021/10/22 02:24:52;;;;;;;3.33;1.10;;;;;;;10.11;52.22;97949.16;5064053;28;20377;-74
2021/10/22 02:27:18;;;;;;;1.48;1.00;;;;;;;10.08;52.75;97947.00;5084678;28;20032;-75
2021/10/22 02:29:43;;;;;;;2.15;1.05;;;;;;;10.10;51.78;97950.25;5068430;28;20020;-75
2021/10/22 02:32:09;;;;;;;3.95;1.27;;;;;;;10.11;51.79;97958.16;5085987;28;20103;-76
2021/10/22 02:34:34;;;;;;;2.42;1.20;;;;;;;10.09;52.86;97960.38;5082271;28;20020;-76
2021/10/22 02:37:00;;;;;;;2.30;1.10;;;;;;;10.06;52.85;97966.47;5088296;28;20043;-75
2021/10/22 02:39:26;;;;;;;3.55;1.35;;;;;;;10.00;52.15;97966.91;5080709;28;20435;-76
2021/10/22 02:41:52;;;;;;;3.08;1.20;;;;;;;9.95;52.94;97965.88;5079190;28;20115;-76
2021/10/22 02:44:17;;;;;;;3.83;2.00;;;;;;;9.91;53.37;97964.06;5083876;28;20106;-76
2021/10/22 02:46:43;;;;;;;3.55;1.13;;;;;;;9.87;52.60;97965.78;5086313;28;20078;-75
2021/10/22 02:49:09;;;;;;;2.45;1.40;;;;;;;9.84;53.30;97958.97;5088455;28;20046;-75
2021/10/22 02:51:34;;;;;;;2.25;1.10;;;;;;;9.80;52.92;97974.38;5085571;28;20100;-75
2021/10/22 02:54:00;;;;;;;1.65;0.90;;;;;;;9.72;53.58;97975.91;5092500;28;20477;-77
2021/10/22 02:56:25;;;;;;;1.70;1.05;;;;;;;9.69;53.40;97973.78;5070269;28;20032;-76
2021/10/22 02:58:51;;;;;;;0.73;0.60;;;;;;;9.64;53.22;97980.16;5084433;28;20050;-76
2021/10/22 03:01:17;;;;;;;1.63;0.80;;;;;;;9.60;53.53;97975.56;5081940;28;20036;-77
2021/10/22 03:03:42;;;;;;;1.05;0.50;;;;;;;9.54;53.57;97988.56;5085927;28;20051;-75
2021/10/22 03:06:08;;;;;;;1.13;0.70;;;;;;;9.48;53.75;97992.50;5088780;28;20024;-76
2021/10/22 03:08:33;;;;;;;0.60;0.47;;;;;;;9.42;53.90;97997.25;5089686;28;20384;-77
2021/10/22 03:10:59;;;;;;;0.93;0.40;;;;;;;9.40;53.86;98002.22;5088074;28;20082;-76
2021/10/22 03:13:24;;;;;;;1.30;0.50;;;;;;;9.35;53.62;98010.50;5085608;28;20139;-75
2021/10/22 03:15:50;;;;;;;2.65;0.50;;;;;;;9.33;53.89;98016.28;5086097;28;20016;-77
2021/10/22 03:18:15;;;;;;;0.82;0.35;;;;;;;9.29;53.87;98031.69;5068913;28;20084;-75
2021/10/22 03:20:41;;;;;;;2.78;0.70;;;;;;;9.25;53.68;98036.13;5087224;28;20077;-75
2021/10/22 03:23:06;;;;;;;4.05;1.10;;;;;;;9.23;53.77;98044.59;5086415;28;20042;-76
2021/10/22 03:25:32;;;;;;;4.75;1.50;;;;;;;9.16;53.93;98044.19;5087797;28;20032;-75
2021/10/22 03:28:06;;;;;;;4.22;1.20;;;;;;;9.11;53.87;98040.72;5082907;28;20044;-75
2021/10/22 03:30:36;;;;;;;2.40;0.90;;;;;;;8.99;53.76;98041.97;5082148;28;20020;-75
2021/10/22 03:33:03;;;;;;;2.03;0.80;;;;;;;8.87;54.00;98042.41;5068163;28;20085;-76
2021/10/22 03:35:28;;;;;;;3.25;0.82;;;;;;;8.76;53.98;98044.47;5091391;28;20016;-76
2021/10/22 03:37:55;;;;;;;0.77;0.60;;;;;;;8.68;54.53;98038.88;5063771;28;20096;-75
2021/10/22 03:40:21;;;;;;;1.88;0.60;;;;;;;8.60;54.66;98049.34;5067715;28;20053;-76
2021/10/22 03:42:47;;;;;;;0.88;0.50;;;;;;;8.53;54.29;98046.16;5089412;28;20115;-74
2021/10/22 03:45:14;;;;;;;1.90;0.70;;;;;;;8.43;54.18;98055.25;5083942;28;20055;-74
2021/10/22 03:47:39;;;;;;;2.30;1.00;;;;;;;8.32;54.67;98065.50;5086469;28;20023;-75
2021/10/22 03:50:05;;;;;;;1.20;0.55;;;;;;;8.24;54.70;98079.81;5089089;28;20055;-75
2021/10/22 03:52:30;;;;;;;1.52;0.52;;;;;;;8.15;54.57;98065.16;5090833;28;20020;-75
2021/10/22 03:54:56;;;;;;;1.13;0.57;;;;;;;8.09;54.96;98072.59;5080134;28;20035;-75
2021/10/22 03:57:21;;;;;;;2.60;0.65;;;;;;;8.04;54.72;98076.16;5084261;28;20494;-75
2021/10/22 03:59:46;;;;;;;1.13;0.70;;;;;;;7.99;55.27;98073.50;5081485;28;20025;-75
2021/10/22 04:02:12;;;;;;;2.03;0.60;;;;;;;7.97;55.30;98085.81;5085112;28;20032;-75
2021/10/22 04:04:37;;;;;;;2.05;0.70;;;;;;;7.94;55.49;98081.75;5087117;28;20083;-75
2021/10/22 04:07:03;;;;;;;3.42;0.80;;;;;;;7.88;55.56;98080.97;5085386;28;20102;-76
2021/10/22 04:09:31;;;;;;;2.60;1.02;;;;;;;7.88;55.61;98089.16;5088159;28;20027;-75
2021/10/22 04:11:58;;;;;;;3.85;1.48;;;;;;;7.88;55.46;98088.38;5079424;28;20040;-75
2021/10/22 04:14:23;;;;;;;1.20;0.70;;;;;;;7.83;55.87;98091.13;5081052;28;20024;-75
2021/10/22 04:16:49;;;;;;;36.40;11.77;;;;;;;7.78;56.00;98089.25;5065581;28;20035;-75
2021/10/22 04:19:15;;;;;;;22.20;7.53;;;;;;;7.71;55.55;98095.06;5083718;28;20046;-75
2021/10/22 04:21:41;;;;;;;11.27;3.80;;;;;;;7.63;55.55;98086.69;5084898;28;20103;-76
2021/10/22 04:24:07;;;;;;;14.45;6.53;;;;;;;7.56;55.71;98092.44;5082782;28;20081;-74
2021/10/22 04:26:33;;;;;;;6.32;3.17;;;;;;;7.46;55.79;98096.06;5080745;28;20044;-75
2021/10/22 04:28:58;;;;;;;4.43;1.80;;;;;;;7.39;55.87;98090.13;5077547;28;20019;-76
2021/10/22 04:31:24;;;;;;;2.80;1.58;;;;;;;7.32;55.90;98086.94;5059231;28;20384;-76
2021/10/22 04:33:49;;;;;;;2.17;1.50;;;;;;;7.22;56.38;98088.63;5081406;28;20028;-75
2021/10/22 04:36:15;;;;;;;2.90;1.00;;;;;;;7.12;56.38;98094.97;5084515;28;20562;-75
2021/10/22 04:41:24;;;;;;;1.83;0.95;;;;;;;6.91;57.29;98099.72;5070981;28;20420;-77
2021/10/22 04:43:51;;;;;;;2.67;1.15;;;;;;;6.85;57.96;98095.38;5083781;28;20024;-77
2021/10/22 04:46:17;;;;;;;1.23;0.75;;;;;;;6.80;58.32;98087.22;5063689;28;20059;-76
2021/10/22 04:48:44;;;;;;;2.92;0.90;;;;;;;6.76;59.01;98102.50;5086916;28;20082;-77
2021/10/22 04:51:12;;;;;;;2.03;0.82;;;;;;;6.74;59.29;98091.06;5078355;28;20021;-76
2021/10/22 04:53:38;;;;;;;2.50;1.20;;;;;;;6.72;59.97;98101.44;5081195;28;20497;-76
2021/10/22 04:56:03;;;;;;;2.30;1.17;;;;;;;6.71;59.97;98100.63;5085195;28;20020;-75
2021/10/22 04:58:29;;;;;;;2.85;1.20;;;;;;;6.72;59.89;98102.28;5087342;28;20028;-75
2021/10/22 05:00:54;;;;;;;3.10;1.20;;;;;;;6.72;60.58;98109.63;5084391;28;20012;-76
2021/10/22 05:03:20;;;;;;;3.72;1.15;;;;;;;6.71;60.33;98111.53;5086805;28;20021;-77
2021/10/22 05:05:45;;;;;;;3.92;1.40;;;;;;;6.70;60.35;98113.44;5095938;28;20008;-78
2021/10/22 05:08:10;;;;;;;1.70;1.10;;;;;;;6.69;60.63;98119.97;5082326;28;20062;-77
2021/10/22 05:10:36;;;;;;;6.55;2.60;;;;;;;6.66;60.62;98117.00;5080744;28;20028;-78
2021/10/22 05:13:01;;;;;;;3.83;1.77;;;;;;;6.63;60.40;98123.00;5079456;28;20036;-77
2021/10/22 05:15:27;;;;;;;2.40;1.60;;;;;;;6.62;60.67;98124.09;5079467;28;20032;-77
2021/10/22 05:17:52;;;;;;;4.68;1.58;;;;;;;6.57;60.14;98124.91;5082635;28;20012;-76
2021/10/22 05:20:18;;;;;;;2.35;0.98;;;;;;;6.54;61.01;98120.03;5084533;28;20059;-77
2021/10/22 05:22:43;;;;;;;1.35;1.10;;;;;;;6.47;60.44;98125.78;5094605;28;20031;-76
2021/10/22 05:25:11;;;;;;;2.30;1.40;;;;;;;6.43;60.36;98138.31;5085122;28;20103;-76
2021/10/22 05:27:37;;;;;;;1.58;1.45;;;;;;;6.39;60.90;98126.34;5083134;28;20040;-76
2021/10/22 05:30:05;;;;;;;2.00;1.00;;;;;;;6.37;61.39;98136.69;5084966;28;20067;-77
2021/10/22 05:32:31;;;;;;;2.42;1.00;;;;;;;6.34;61.55;98142.69;5080792;28;20027;-77
2021/10/22 05:34:56;;;;;;;2.22;1.10;;;;;;;6.32;61.21;98143.00;5081904;28;20383;-79
2021/10/22 05:37:21;;;;;;;4.97;1.30;;;;;;;6.32;61.37;98148.44;5084836;28;20103;-78
2021/10/22 05:39:47;;;;;;;3.42;1.02;;;;;;;6.31;61.45;98151.44;5088460;28;20430;-78
2021/10/22 05:42:12;;;;;;;3.38;1.00;;;;;;;6.32;61.66;98153.06;5087063;28;20020;-79
2021/10/22 05:44:38;;;;;;;3.15;1.10;;;;;;;6.32;61.19;98159.34;5076099;28;20422;-78
2021/10/22 05:47:04;;;;;;;2.63;1.20;;;;;;;6.32;62.00;98169.41;5092336;28;20466;-78
2021/10/22 05:49:29;;;;;;;3.08;1.52;;;;;;;6.29;62.16;98165.31;5095182;28;20028;-79
2021/10/22 05:51:55;;;;;;;1.45;1.20;;;;;;;6.28;63.21;98168.34;5078229;28;20111;-78
2021/10/22 05:54:20;;;;;;;1.85;1.02;;;;;;;6.26;62.51;98168.59;5087118;28;20387;-78
2021/10/22 05:56:46;;;;;;;2.33;1.20;;;;;;;6.28;62.79;98181.97;5091502;28;20032;-78
2021/10/22 05:59:12;;;;;;;4.25;1.38;;;;;;;6.32;62.35;98183.00;5098327;28;20103;-77
2021/10/22 06:01:37;;;;;;;3.88;1.08;;;;;;;6.32;62.27;98186.56;5093949;28;20024;-77
2021/10/22 06:04:03;;;;;;;2.55;1.10;;;;;;;6.34;63.20;98192.56;5096431;28;20031;-77
2021/10/22 06:06:28;;;;;;;4.45;1.50;;;;;;;6.38;62.91;98196.38;5097114;28;20032;-77
2021/10/22 06:08:55;;;;;;;3.28;1.40;;;;;;;6.43;62.87;98200.19;5089712;28;20154;-77
2021/10/22 06:11:21;;;;;;;3.67;1.30;;;;;;;6.46;62.17;98205.06;5103920;28;20031;-77
2021/10/22 06:13:47;;;;;;;2.95;1.25;;;;;;;6.53;62.65;98195.50;5081507;28;20438;-77
2021/10/22 06:16:13;;;;;;;6.03;2.42;;;;;;;6.55;62.23;98200.69;5084197;28;20023;-79
2021/10/22 06:18:48;;;;;;;3.70;1.33;;;;;;;6.60;62.36;98199.88;5084033;28;20027;-78
2021/10/22 06:21:51;;;;;;;2.58;1.20;;;;;;;6.58;62.61;98200.13;5090463;28;20404;-77
2021/10/22 06:24:16;;;;;;;2.70;1.40;;;;;;;6.59;62.52;98200.97;5101846;28;20028;-78
2021/10/22 06:26:42;;;;;;;4.70;1.35;;;;;;;6.58;62.28;98202.03;5095697;28;20098;-78
2021/10/22 06:29:11;;;;;;;4.65;1.75;;;;;;;6.59;62.63;98207.22;5102414;28;20472;-78
2021/10/22 06:31:40;;;;;;;4.80;1.98;;;;;;;6.59;62.59;98195.50;5111197;28;20039;-78
2021/10/22 06:34:07;;;;;;;6.57;3.17;;;;;;;6.59;62.65;98207.22;5112975;28;20066;-79
2021/10/22 06:36:33;;;;;;;5.80;2.05;;;;;;;6.62;62.30;98206.66;5096459;28;20556;-78
2021/10/22 06:38:59;;;;;;;4.70;1.85;;;;;;;6.64;62.70;98212.66;5110858;28;20024;-78
2021/10/22 06:41:24;;;;;;;4.63;1.60;;;;;;;6.68;62.56;98218.38;5087070;28;20020;-79
2021/10/22 06:43:50;;;;;;;7.10;2.10;;;;;;;6.71;62.53;98217.84;5089431;28;20088;-78
2021/10/22 06:46:16;;;;;;;7.35;3.03;;;;;;;6.73;62.48;98214.81;5076190;28;20023;-77
2021/10/22 06:48:43;;;;;;;10.20;4.05;;;;;;;6.78;62.52;98222.97;5082616;28;20048;-77
2021/10/22 06:51:10;;;;;;;7.43;2.50;;;;;;;6.82;62.11;98224.06;5090524;28;20013;-78
2021/10/22 06:53:36;;;;;;;6.35;2.72;;;;;;;6.87;62.46;98220.50;5083530;28;20491;-80
2021/10/22 06:56:05;;;;;;;8.40;2.83;;;;;;;6.88;61.92;98222.97;5085028;28;20032;-78
2021/10/22 06:58:31;;;;;;;7.95;2.42;;;;;;;6.97;61.87;98218.53;5090691;28;20051;-77
2021/10/22 07:00:59;;;;;;;4.25;2.00;;;;;;;7.02;61.88;98225.06;5090799;28;20656;-79
2021/10/22 07:03:26;;;;;;;7.10;2.55;;;;;;;7.02;61.95;98219.63;5099591;28;20034;-79
2021/10/22 07:08:24;;;;;;;6.18;2.20;;;;;;;7.06;61.06;98235.16;5095509;28;20032;-77
2021/10/22 07:10:50;;;;;;;4.95;1.60;;;;;;;7.08;60.76;98227.53;5082482;28;20024;-79
2021/10/22 07:13:16;;;;;;;5.65;1.67;;;;;;;7.13;60.41;98226.66;5096652;28;20027;-77
2021/10/22 07:15:42;;;;;;;7.65;2.42;;;;;;;7.17;60.18;98227.75;5105472;28;20027;-78
2021/10/22 07:18:08;;;;;;;8.02;1.83;;;;;;;7.22;60.32;98232.34;5093078;28;20040;-78
2021/10/22 07:20:35;;;;;;;9.35;2.33;;;;;;;7.29;59.64;98243.78;5102029;28;20379;-78
2021/10/22 07:23:09;;;;;;;7.25;1.83;;;;;;;7.34;59.73;98242.94;5108134;28;20055;-78
2021/10/22 07:25:38;;;;;;;6.10;2.00;;;;;;;7.40;59.19;98239.09;5112566;28;20102;-78
2021/10/22 07:28:14;;;;;;;8.45;2.10;;;;;;;7.45;58.53;98242.63;5106645;28;20496;-77
2021/10/22 07:30:44;;;;;;;7.68;2.22;;;;;;;7.50;58.23;98243.69;5093920;28;20024;-78
2021/10/22 07:33:10;;;;;;;7.00;1.70;;;;;;;7.56;57.83;98248.00;5088171;28;20559;-77
2021/10/22 07:35:39;;;;;;;7.22;2.40;;;;;;;7.61;57.19;98239.78;5097037;28;20052;-78
2021/10/22 07:38:09;;;;;;;4.55;1.77;;;;;;;7.64;56.92;98247.41;5096345;28;20035;-77
2021/10/22 07:40:35;;;;;;;7.90;2.45;;;;;;;7.72;56.82;98251.47;5091347;28;20035;-78
2021/10/22 07:43:00;;;;;;;9.18;2.30;;;;;;;7.75;57.09;98248.16;5102373;28;20020;-76
2021/10/22 07:45:26;;;;;;;9.02;2.55;;;;;;;7.83;56.46;98257.69;5094411;28;20152;-77
2021/10/22 07:47:51;;;;;;;6.43;2.40;;;;;;;7.85;55.51;98267.22;5096948;28;20058;-78
2021/10/22 07:50:18;;;;;;;6.97;1.73;;;;;;;7.86;55.09;98268.03;5089571;28;20095;-76
2021/10/22 07:52:44;;;;;;;5.15;1.80;;;;;;;7.94;55.77;98267.44;5088789;28;20035;-77
2021/10/22 07:55:10;;;;;;;6.63;1.90;;;;;;;8.00;54.73;98270.94;5087351;28;20023;-77
2021/10/22 07:57:35;;;;;;;5.10;1.60;;;;;;;8.02;54.34;98274.22;5085100;28;20081;-76
2021/10/22 08:00:01;;;;;;;8.00;1.70;;;;;;;8.01;54.01;98272.59;5088240;28;20549;-76
2021/10/22 08:02:27;;;;;;;7.50;2.63;;;;;;;8.02;54.62;98276.94;5090317;28;20062;-77
2021/10/22 08:04:53;;;;;;;5.78;1.70;;;;;;;8.05;53.99;98271.72;5073114;28;20020;-75
2021/10/22 08:07:30;;;;;;;6.53;1.83;;;;;;;8.07;53.65;98279.66;5088542;28;20039;-78
2021/10/22 08:09:58;;;;;;;6.20;1.88;;;;;;;8.09;53.70;98279.34;5089463;28;20111;-76
2021/10/22 08:12:25;;;;;;;8.05;1.70;;;;;;;8.13;54.40;98269.50;5086839;28;20024;-76
2021/10/22 08:14:51;;;;;;;4.13;1.10;;;;;;;8.20;54.22;98278.19;5087133;28;20024;-77
2021/10/22 08:17:17;;;;;;;7.30;1.40;;;;;;;8.25;53.14;98278.16;5091552;28;20122;-77
2021/10/22 08:19:43;;;;;;;6.03;1.15;;;;;;;8.29;52.98;98276.47;5088636;28;20020;-78
2021/10/22 08:22:28;;;;;;;3.65;1.35;;;;;;;8.33;52.05;98277.53;5084293;28;20070;-77
2021/10/22 08:24:59;;;;;;;6.80;1.60;;;;;;;8.38;52.44;98282.13;5088934;28;20420;-74
2021/10/22 08:27:46;;;;;;;7.03;2.58;;;;;;;8.44;51.83;98285.63;5072192;28;20068;-76
2021/10/22 08:30:24;;;;;;;9.90;1.50;;;;;;;8.48;51.75;98278.50;5082393;28;20040;-76
2021/10/22 08:32:51;;;;;;;6.30;1.83;;;;;;;8.54;51.95;98288.31;5083175;28;20027;-75
2021/10/22 08:35:22;;;;;;;3.72;0.93;;;;;;;8.57;50.97;98301.41;5083372;28;20112;-73
2021/10/22 08:37:48;;;;;;;3.92;1.00;;;;;;;8.60;50.56;98300.84;5087048;28;20112;-75
2021/10/22 08:40:14;;;;;;;8.98;1.48;;;;;;;8.59;49.80;98298.38;5087466;28;20488;-74
2021/10/22 08:42:41;;;;;;;5.22;1.17;;;;;;;8.58;49.17;98291.28;5098063;28;20035;-73
2021/10/22 08:45:06;;;;;;;4.93;1.02;;;;;;;8.58;49.44;98297.56;5076846;28;20389;-75
2021/10/22 08:47:34;;;;;;;7.03;1.83;;;;;;;8.63;50.09;98299.44;5087487;28;20024;-75
2021/10/22 08:50:03;;;;;;;4.50;1.27;;;;;;;8.67;50.15;98299.69;5065585;28;20032;-75
2021/10/22 08:52:30;;;;;;;4.68;1.40;;;;;;;8.74;50.27;98297.44;5081660;28;20710;-75
2021/10/22 08:54:59;;;;;;;7.20;3.28;;;;;;;8.81;49.58;98314.31;5085449;28;20511;-75
2021/10/22 08:57:25;;;;;;;6.30;1.77;;;;;;;8.83;49.10;98311.28;5092586;28;20020;-74
2021/10/22 08:59:53;;;;;;;6.90;1.60;;;;;;;8.84;48.72;98310.19;5090788;28;20591;-76
2021/10/22 09:02:25;;;;;;;4.38;1.52;;;;;;;8.86;49.21;98297.84;5086059;28;20035;-79
2021/10/22 09:04:59;;;;;;;5.55;1.33;;;;;;;8.85;49.42;98298.94;5094580;28;20054;-75
2021/10/22 09:07:45;;;;;;;7.97;1.75;;;;;;;8.92;49.75;98301.38;5075291;28;20035;-73
2021/10/22 09:10:12;;;;;;;4.13;1.48;;;;;;;9.01;49.22;98312.47;5092121;28;20047;-76
2021/10/22 09:12:50;;;;;;;6.75;1.25;;;;;;;9.06;49.23;98302.28;5099677;28;20510;-75
2021/10/22 09:15:23;;;;;;;6.38;2.25;;;;;;;9.13;48.53;98301.97;5094199;28;20020;-75
2021/10/22 09:17:49;;;;;;;7.10;2.03;;;;;;;9.16;48.60;98300.56;5076011;28;20107;-77
2021/10/22 09:20:16;;;;;;;7.00;2.60;;;;;;;9.22;49.31;98294.72;5100826;28;20395;-73
2021/10/22 09:22:50;;;;;;;6.00;1.45;;;;;;;9.31;48.25;98308.59;5096003;28;20421;-75
2021/10/22 09:25:20;;;;;;;3.85;1.13;;;;;;;9.34;48.32;98308.03;5099152;28;20028;-74
2021/10/22 09:27:57;;;;;;;5.05;1.42;;;;;;;9.34;47.15;98301.72;5083945;28;20402;-74
2021/10/22 09:30:23;;;;;;;4.15;1.25;;;;;;;9.33;47.27;98294.63;5079310;28;20032;-74
2021/10/22 09:32:52;;;;;;;5.60;1.30;;;;;;;9.35;48.15;98298.69;5086284;28;20021;-75
2021/10/22 09:35:35;;;;;;;6.30;1.40;;;;;;;9.40;47.28;98297.81;5093758;28;20085;-74
2021/10/22 09:38:14;;;;;;;9.45;2.10;;;;;;;9.43;47.34;98302.72;5078875;28;20024;-74
2021/10/22 09:40:48;;;;;;;6.05;1.65;;;;;;;9.47;48.23;98291.97;5070821;28;20245;-75
2021/10/22 09:43:19;;;;;;;5.38;2.20;;;;;;;9.48;47.44;98299.06;5079617;28;20031;-75
2021/10/22 09:45:48;;;;;;;4.90;1.20;;;;;;;9.48;48.20;98296.34;5075284;28;20111;-75
2021/10/22 09:48:28;;;;;;;5.78;1.52;;;;;;;9.51;46.93;98293.84;5083403;28;20021;-73
2021/10/22 09:51:20;;;;;;;4.75;1.70;;;;;;;9.58;47.60;98290.75;5084074;28;20480;-74
2021/10/22 09:53:45;;;;;;;3.38;1.05;;;;;;;9.62;46.94;98286.31;5078991;28;20036;-75
2021/10/22 09:56:21;;;;;;;1.92;1.00;;;;;;;9.65;47.08;98276.69;5075362;28;20381;-75
2021/10/22 09:59:04;;;;;;;4.32;1.30;;;;;;;9.69;47.88;98275.00;5084983;28;20020;-74
2021/10/22 10:01:41;;;;;;;4.55;1.00;;;;;;;9.78;47.07;98272.41;5076398;28;20115;-73
2021/10/22 10:04:09;;;;;;;3.90;1.00;;;;;;;9.85;46.45;98269.31;5071421;28;20032;-73
2021/10/22 10:06:35;;;;;;;5.30;0.85;;;;;;;9.87;47.36;98273.38;5077708;28;20465;-73
2021/10/22 10:09:02;;;;;;;2.30;0.90;;;;;;;9.93;46.38;98272.19;5081204;28;20489;-72
2021/10/22 10:11:29;;;;;;;4.57;1.38;;;;;;;9.97;47.83;98278.69;5072613;28;20032;-72
2021/10/22 10:13:56;;;;;;;3.33;1.15;;;;;;;10.04;47.07;98261.88;5087921;28;20029;-73
2021/10/22 10:16:23;;;;;;;4.88;1.10;;;;;;;10.07;46.79;98252.25;5078814;28;20036;-73
2021/10/22 10:19:12;;;;;;;2.50;0.88;;;;;;;10.10;46.02;98247.00;5086072;28;20086;-71
2021/10/22 10:21:45;;;;;;;3.58;0.63;;;;;;;10.10;46.08;98246.19;5077289;28;20427;-73
2021/10/22 10:24:11;;;;;;;3.75;1.00;;;;;;;10.09;46.21;98245.38;5068543;28;20032;-73
2021/10/22 10:26:37;;;;;;;3.58;1.08;;;;;;;10.16;46.57;98255.13;5074190;28;20522;-73
2021/10/22 10:29:08;;;;;;;3.72;1.42;;;;;;;10.23;46.31;98252.84;5093347;28;20024;-71
2021/10/22 10:31:41;;;;;;;3.88;1.08;;;;;;;10.23;45.45;98252.84;5092748;28;20034;-72
2021/10/22 10:34:34;;;;;;;6.00;1.40;;;;;;;10.25;46.10;98250.59;5095238;28;20036;-73
2021/10/22 10:37:02;;;;;;;3.53;0.75;;;;;;;10.24;44.65;98263.47;5094966;28;20059;-71
2021/10/22 10:39:46;;;;;;;3.28;1.13;;;;;;;10.25;45.31;98251.41;5084647;28;20024;-72
2021/10/22 10:42:18;;;;;;;5.85;1.50;;;;;;;10.31;45.65;98254.06;5073803;28;20028;-72
2021/10/22 10:44:44;;;;;;;3.25;0.90;;;;;;;10.35;46.00;98247.69;5101535;28;20035;-72
2021/10/22 10:47:28;;;;;;;5.47;1.10;;;;;;;10.45;44.50;98240.44;5086187;28;20077;-72
2021/10/22 10:49:55;;;;;;;5.47;0.90;;;;;;;10.46;45.07;98245.63;5094951;28;20056;-70
2021/10/22 10:52:39;;;;;;;4.05;1.02;;;;;;;10.45;44.60;98235.78;5087872;28;20039;-77
2021/10/22 10:55:32;;;;;;;3.85;1.23;;;;;;;10.45;44.35;98230.28;5091494;28;20020;-74
2021/10/22 10:58:09;;;;;;;7.82;4.07;;;;;;;10.56;45.27;98230.91;5088712;28;20118;-73
2021/10/22 11:00:42;;;;;;;3.33;1.00;;;;;;;10.75;45.71;98225.34;5091561;28;20117;-73
2021/10/22 11:03:16;;;;;;;5.30;1.42;;;;;;;10.93;44.43;98204.44;5092488;28;20032;-74
2021/10/22 11:05:45;;;;;;;2.10;1.10;;;;;;;11.04;42.67;98206.97;5091807;28;20027;-74
2021/10/22 11:08:38;;;;;;;6.20;1.30;;;;;;;11.21;44.36;98214.59;5093452;28;20036;-75
2021/10/22 11:11:20;;;;;;;4.40;0.82;;;;;;;11.42;43.65;98206.72;5082408;28;20051;-73
2021/10/22 11:13:50;;;;;;;4.90;1.15;;;;;;;11.56;41.66;98191.03;5089532;28;20094;-73
2021/10/22 11:16:30;;;;;;;4.50;1.00;;;;;;;11.71;41.83;98203.63;5093188;28;20036;-75
2021/10/22 11:19:05;;;;;;;8.80;4.15;;;;;;;11.83;41.07;98203.06;5086946;28;20044;-76
2021/10/22 11:21:34;;;;;;;3.35;1.05;;;;;;;11.89;40.47;98188.09;5089781;28;20020;-75
2021/10/22 11:24:01;;;;;;;5.13;1.45;;;;;;;11.96;40.39;98184.09;5081457;28;20161;-76
2021/10/22 11:26:28;;;;;;;3.05;1.00;;;;;;;11.95;40.64;98188.75;5087605;28;20043;-76
2021/10/22 11:28:59;;;;;;;4.22;0.90;;;;;;;11.96;39.50;98184.09;5088488;28;20028;-75
2021/10/22 11:31:58;;;;;;;3.65;1.38;;;;;;;11.97;40.50;98183.75;5090438;28;20032;-76
2021/10/22 11:34:27;;;;;;;3.85;1.10;;;;;;;12.05;40.51;98194.03;5061534;28;20051;-75
2021/10/22 11:37:01;;;;;;;4.25;1.33;;;;;;;12.05;39.49;98184.97;5088820;28;20107;-76
2021/10/22 11:39:30;;;;;;;4.72;1.05;;;;;;;12.01;40.10;98175.75;5102077;28;20062;-76
2021/10/22 11:42:14;;;;;;;2.63;1.23;;;;;;;11.93;38.80;98179.22;5089759;28;20070;-76
2021/10/22 11:44:45;;;;;;;2.88;1.17;;;;;;;11.87;40.25;98176.59;5083527;28;20040;-78
2021/10/22 11:47:12;;;;;;;3.78;1.40;;;;;;;11.86;40.05;98183.22;5077742;28;20028;-77
2021/10/22 11:49:38;;;;;;;6.63;1.85;;;;;;;11.76;40.12;98172.44;5079312;28;20128;-78